sensor_id;sensor_type;location;lat;lon;timestamp;P1;durP1;ratioP1;P2;durP2;ratioP2
19521;SDS011;9905;52.126;5.596;2022-12-07T00:01:16;15.20;;;14.50;;
19521;SDS011;9905;52.126;5.596;2022-12-07T00:03:46;14.32;;;13.82;;
19521;SDS011;9905;52.126;5.596;2022-12-07T00:06:14;15.73;;;15.13;;
19521;SDS011;9905;52.126;5.596;2022-12-07T00:08:42;15.02;;;14.43;;
19521;SDS011;9905;52.126;5.596;2022-12-07T00:11:10;15.65;;;15.07;;
19521;SDS011;9905;52.126;5.596;2022-12-07T00:13:39;15.40;;;14.52;;
19521;SDS011;9905;52.126;5.596;2022-12-07T00:16:07;16.10;;;15.13;;
19521;SDS011;9905;52.126;5.596;2022-12-07T00:18:35;17.17;;;16.23;;
19521;SDS011;9905;52.126;5.596;2022-12-07T00:21:03;16.67;;;16.02;;
19521;SDS011;9905;52.126;5.596;2022-12-07T00:23:31;15.45;;;14.80;;
19521;SDS011;9905;52.126;5.596;2022-12-07T00:26:02;15.52;;;14.93;;
19521;SDS011;9905;52.126;5.596;2022-12-07T00:28:30;15.85;;;14.95;;
19521;SDS011;9905;52.126;5.596;2022-12-07T00:30:59;15.20;;;14.43;;
19521;SDS011;9905;52.126;5.596;2022-12-07T00:33:27;14.93;;;14.32;;
19521;SDS011;9905;52.126;5.596;2022-12-07T00:35:55;14.60;;;14.00;;
19521;SDS011;9905;52.126;5.596;2022-12-07T00:38:23;15.38;;;14.68;;
19521;SDS011;9905;52.126;5.596;2022-12-07T00:40:54;15.13;;;14.63;;
19521;SDS011;9905;52.126;5.596;2022-12-07T00:43:22;16.08;;;15.48;;
19521;SDS011;9905;52.126;5.596;2022-12-07T00:45:49;16.42;;;15.73;;
19521;SDS011;9905;52.126;5.596;2022-12-07T00:48:16;16.92;;;16.33;;
19521;SDS011;9905;52.126;5.596;2022-12-07T00:50:42;16.20;;;15.52;;
19521;SDS011;9905;52.126;5.596;2022-12-07T00:53:09;15.95;;;15.35;;
19521;SDS011;9905;52.126;5.596;2022-12-07T00:55:37;15.77;;;15.00;;
19521;SDS011;9905;52.126;5.596;2022-12-07T00:58:04;17.25;;;16.55;;
19521;SDS011;9905;52.126;5.596;2022-12-07T01:00:31;15.75;;;15.23;;
19521;SDS011;9905;52.126;5.596;2022-12-07T01:02:58;15.88;;;15.27;;
19521;SDS011;9905;52.126;5.596;2022-12-07T01:05:25;15.77;;;15.18;;
19521;SDS011;9905;52.126;5.596;2022-12-07T01:07:52;16.48;;;15.70;;
19521;SDS011;9905;52.126;5.596;2022-12-07T01:10:18;17.52;;;16.75;;
19521;SDS011;9905;52.126;5.596;2022-12-07T01:12:46;16.65;;;15.85;;
19521;SDS011;9905;52.126;5.596;2022-12-07T01:15:13;17.90;;;17.13;;
19521;SDS011;9905;52.126;5.596;2022-12-07T01:17:40;16.83;;;15.73;;
19521;SDS011;9905;52.126;5.596;2022-12-07T01:20:07;16.38;;;15.68;;
19521;SDS011;9905;52.126;5.596;2022-12-07T01:22:36;15.35;;;14.65;;
19521;SDS011;9905;52.126;5.596;2022-12-07T01:25:03;16.48;;;15.68;;
19521;SDS011;9905;52.126;5.596;2022-12-07T01:27:31;15.25;;;14.73;;
19521;SDS011;9905;52.126;5.596;2022-12-07T01:29:59;16.05;;;15.45;;
19521;SDS011;9905;52.126;5.596;2022-12-07T01:32:26;16.40;;;15.70;;
19521;SDS011;9905;52.126;5.596;2022-12-07T01:34:53;16.40;;;15.57;;
19521;SDS011;9905;52.126;5.596;2022-12-07T01:37:20;16.60;;;15.70;;
19521;SDS011;9905;52.126;5.596;2022-12-07T01:39:48;17.52;;;16.73;;
19521;SDS011;9905;52.126;5.596;2022-12-07T01:42:14;16.80;;;16.08;;
19521;SDS011;9905;52.126;5.596;2022-12-07T01:47:50;17.98;;;16.90;;
19521;SDS011;9905;52.126;5.596;2022-12-07T01:50:20;17.20;;;16.35;;
19521;SDS011;9905;52.126;5.596;2022-12-07T01:52:49;16.23;;;15.63;;
19521;SDS011;9905;52.126;5.596;2022-12-07T01:55:18;16.23;;;15.70;;
19521;SDS011;9905;52.126;5.596;2022-12-07T01:57:46;17.48;;;16.77;;
19521;SDS011;9905;52.126;5.596;2022-12-07T02:00:15;17.80;;;17.02;;
19521;SDS011;9905;52.126;5.596;2022-12-07T02:02:44;17.35;;;16.33;;
19521;SDS011;9905;52.126;5.596;2022-12-07T02:05:17;17.85;;;16.73;;
19521;SDS011;9905;52.126;5.596;2022-12-07T02:07:46;16.98;;;16.08;;
19521;SDS011;9905;52.126;5.596;2022-12-07T02:10:15;17.27;;;16.60;;
19521;SDS011;9905;52.126;5.596;2022-12-07T02:12:43;17.67;;;16.92;;
19521;SDS011;9905;52.126;5.596;2022-12-07T02:15:12;17.13;;;16.50;;
19521;SDS011;9905;52.126;5.596;2022-12-07T02:17:41;16.85;;;16.05;;
19521;SDS011;9905;52.126;5.596;2022-12-07T02:20:25;16.17;;;15.57;;
19521;SDS011;9905;52.126;5.596;2022-12-07T02:23:17;17.73;;;16.42;;
19521;SDS011;9905;52.126;5.596;2022-12-07T02:26:13;17.88;;;16.58;;
19521;SDS011;9905;52.126;5.596;2022-12-07T02:29:10;17.80;;;17.00;;
19521;SDS011;9905;52.126;5.596;2022-12-07T02:31:42;17.35;;;16.45;;
19521;SDS011;9905;52.126;5.596;2022-12-07T02:34:14;16.73;;;15.90;;
19521;SDS011;9905;52.126;5.596;2022-12-07T02:36:46;17.00;;;16.40;;
19521;SDS011;9905;52.126;5.596;2022-12-07T02:39:19;16.15;;;15.65;;
19521;SDS011;9905;52.126;5.596;2022-12-07T02:41:55;17.05;;;16.10;;
19521;SDS011;9905;52.126;5.596;2022-12-07T02:44:29;16.80;;;15.88;;
19521;SDS011;9905;52.126;5.596;2022-12-07T02:46:59;17.20;;;16.60;;
19521;SDS011;9905;52.126;5.596;2022-12-07T02:49:35;17.70;;;17.00;;
19521;SDS011;9905;52.126;5.596;2022-12-07T02:52:04;17.67;;;16.80;;
19521;SDS011;9905;52.126;5.596;2022-12-07T02:54:30;18.13;;;17.30;;
19521;SDS011;9905;52.126;5.596;2022-12-07T02:57:00;16.63;;;15.98;;
19521;SDS011;9905;52.126;5.596;2022-12-07T02:59:40;17.10;;;16.35;;
19521;SDS011;9905;52.126;5.596;2022-12-07T03:02:17;17.02;;;16.48;;
19521;SDS011;9905;52.126;5.596;2022-12-07T03:04:52;17.93;;;17.13;;
19521;SDS011;9905;52.126;5.596;2022-12-07T03:07:33;17.13;;;16.53;;
19521;SDS011;9905;52.126;5.596;2022-12-07T03:10:07;18.02;;;17.40;;
19521;SDS011;9905;52.126;5.596;2022-12-07T03:12:42;17.90;;;17.10;;
19521;SDS011;9905;52.126;5.596;2022-12-07T03:15:14;18.17;;;17.33;;
19521;SDS011;9905;52.126;5.596;2022-12-07T03:17:46;17.02;;;16.30;;
19521;SDS011;9905;52.126;5.596;2022-12-07T03:20:15;17.30;;;16.65;;
19521;SDS011;9905;52.126;5.596;2022-12-07T03:22:47;17.17;;;16.35;;
19521;SDS011;9905;52.126;5.596;2022-12-07T03:25:15;18.23;;;17.63;;
19521;SDS011;9905;52.126;5.596;2022-12-07T03:27:45;16.65;;;15.95;;
19521;SDS011;9905;52.126;5.596;2022-12-07T03:30:19;17.52;;;16.85;;
19521;SDS011;9905;52.126;5.596;2022-12-07T03:32:48;17.88;;;17.15;;
19521;SDS011;9905;52.126;5.596;2022-12-07T03:35:20;17.48;;;16.90;;
19521;SDS011;9905;52.126;5.596;2022-12-07T03:37:52;18.27;;;17.58;;
19521;SDS011;9905;52.126;5.596;2022-12-07T03:40:23;17.50;;;16.83;;
19521;SDS011;9905;52.126;5.596;2022-12-07T03:42:54;16.77;;;16.17;;
19521;SDS011;9905;52.126;5.596;2022-12-07T03:45:27;17.25;;;16.55;;
19521;SDS011;9905;52.126;5.596;2022-12-07T03:48:02;18.23;;;17.63;;
19521;SDS011;9905;52.126;5.596;2022-12-07T03:50:35;17.58;;;16.70;;
19521;SDS011;9905;52.126;5.596;2022-12-07T03:53:08;17.38;;;16.50;;
19521;SDS011;9905;52.126;5.596;2022-12-07T03:55:40;16.90;;;16.20;;
19521;SDS011;9905;52.126;5.596;2022-12-07T03:58:10;16.45;;;15.82;;
19521;SDS011;9905;52.126;5.596;2022-12-07T04:00:42;16.93;;;16.20;;
19521;SDS011;9905;52.126;5.596;2022-12-07T04:03:10;16.73;;;16.13;;
19521;SDS011;9905;52.126;5.596;2022-12-07T04:05:37;16.58;;;15.98;;
19521;SDS011;9905;52.126;5.596;2022-12-07T04:08:04;16.40;;;15.55;;
19521;SDS011;9905;52.126;5.596;2022-12-07T04:10:31;16.73;;;16.17;;
19521;SDS011;9905;52.126;5.596;2022-12-07T04:12:58;17.70;;;16.98;;
19521;SDS011;9905;52.126;5.596;2022-12-07T04:15:25;16.00;;;15.50;;
19521;SDS011;9905;52.126;5.596;2022-12-07T04:17:53;17.13;;;16.63;;
19521;SDS011;9905;52.126;5.596;2022-12-07T04:20:20;17.33;;;16.57;;
19521;SDS011;9905;52.126;5.596;2022-12-07T04:22:47;18.92;;;17.90;;
19521;SDS011;9905;52.126;5.596;2022-12-07T04:25:13;18.10;;;17.60;;
19521;SDS011;9905;52.126;5.596;2022-12-07T04:27:40;17.40;;;16.80;;
19521;SDS011;9905;52.126;5.596;2022-12-07T04:30:07;17.92;;;17.23;;
19521;SDS011;9905;52.126;5.596;2022-12-07T04:32:34;18.65;;;18.13;;
19521;SDS011;9905;52.126;5.596;2022-12-07T04:35:03;17.67;;;16.93;;
19521;SDS011;9905;52.126;5.596;2022-12-07T04:37:30;16.77;;;16.38;;
19521;SDS011;9905;52.126;5.596;2022-12-07T04:39:57;17.20;;;16.70;;
19521;SDS011;9905;52.126;5.596;2022-12-07T04:42:24;17.10;;;16.40;;
19521;SDS011;9905;52.126;5.596;2022-12-07T04:44:51;17.25;;;16.40;;
19521;SDS011;9905;52.126;5.596;2022-12-07T04:47:17;16.60;;;16.10;;
19521;SDS011;9905;52.126;5.596;2022-12-07T04:49:44;16.73;;;16.13;;
19521;SDS011;9905;52.126;5.596;2022-12-07T04:52:12;16.13;;;15.52;;
19521;SDS011;9905;52.126;5.596;2022-12-07T04:54:39;17.13;;;16.63;;
19521;SDS011;9905;52.126;5.596;2022-12-07T04:57:05;16.80;;;16.08;;
19521;SDS011;9905;52.126;5.596;2022-12-07T04:59:32;17.95;;;17.02;;
19521;SDS011;9905;52.126;5.596;2022-12-07T05:01:59;17.27;;;16.73;;
19521;SDS011;9905;52.126;5.596;2022-12-07T05:04:26;16.65;;;16.13;;
19521;SDS011;9905;52.126;5.596;2022-12-07T05:06:52;16.80;;;16.27;;
19521;SDS011;9905;52.126;5.596;2022-12-07T05:09:20;16.05;;;15.55;;
19521;SDS011;9905;52.126;5.596;2022-12-07T05:11:47;16.50;;;15.87;;
19521;SDS011;9905;52.126;5.596;2022-12-07T05:14:15;18.40;;;17.65;;
19521;SDS011;9905;52.126;5.596;2022-12-07T05:16:43;16.60;;;16.10;;
19521;SDS011;9905;52.126;5.596;2022-12-07T05:19:11;16.55;;;15.93;;
19521;SDS011;9905;52.126;5.596;2022-12-07T05:21:38;16.33;;;15.82;;
19521;SDS011;9905;52.126;5.596;2022-12-07T05:24:06;16.67;;;16.10;;
19521;SDS011;9905;52.126;5.596;2022-12-07T05:26:37;16.27;;;15.77;;
19521;SDS011;9905;52.126;5.596;2022-12-07T05:29:04;16.40;;;15.90;;
19521;SDS011;9905;52.126;5.596;2022-12-07T05:31:31;17.13;;;16.63;;
19521;SDS011;9905;52.126;5.596;2022-12-07T05:33:57;16.00;;;15.03;;
19521;SDS011;9905;52.126;5.596;2022-12-07T05:36:24;15.90;;;15.25;;
19521;SDS011;9905;52.126;5.596;2022-12-07T05:38:53;15.80;;;14.93;;
19521;SDS011;9905;52.126;5.596;2022-12-07T05:41:20;17.88;;;16.90;;
19521;SDS011;9905;52.126;5.596;2022-12-07T05:44:05;14.97;;;14.53;;
19521;SDS011;9905;52.126;5.596;2022-12-07T05:46:32;16.13;;;15.52;;
19521;SDS011;9905;52.126;5.596;2022-12-07T05:48:59;15.43;;;15.03;;
19521;SDS011;9905;52.126;5.596;2022-12-07T05:51:26;14.77;;;14.37;;
19521;SDS011;9905;52.126;5.596;2022-12-07T05:53:53;14.57;;;14.05;;
19521;SDS011;9905;52.126;5.596;2022-12-07T05:56:20;15.27;;;14.73;;
19521;SDS011;9905;52.126;5.596;2022-12-07T05:58:46;15.87;;;15.37;;
19521;SDS011;9905;52.126;5.596;2022-12-07T06:01:32;14.87;;;14.37;;
19521;SDS011;9905;52.126;5.596;2022-12-07T06:03:59;14.82;;;14.32;;
19521;SDS011;9905;52.126;5.596;2022-12-07T06:06:26;14.55;;;13.40;;
19521;SDS011;9905;52.126;5.596;2022-12-07T06:08:52;15.88;;;15.27;;
19521;SDS011;9905;52.126;5.596;2022-12-07T06:11:19;14.90;;;14.30;;
19521;SDS011;9905;52.126;5.596;2022-12-07T06:14:03;15.13;;;14.52;;
19521;SDS011;9905;52.126;5.596;2022-12-07T06:16:30;16.30;;;15.57;;
19521;SDS011;9905;52.126;5.596;2022-12-07T06:18:58;16.17;;;15.48;;
19521;SDS011;9905;52.126;5.596;2022-12-07T06:21:25;17.13;;;16.52;;
19521;SDS011;9905;52.126;5.596;2022-12-07T06:23:52;15.90;;;15.20;;
19521;SDS011;9905;52.126;5.596;2022-12-07T06:26:19;15.50;;;15.02;;
19521;SDS011;9905;52.126;5.596;2022-12-07T06:28:46;15.43;;;14.93;;
19521;SDS011;9905;52.126;5.596;2022-12-07T06:31:12;16.48;;;15.55;;
19521;SDS011;9905;52.126;5.596;2022-12-07T06:33:39;16.70;;;16.02;;
19521;SDS011;9905;52.126;5.596;2022-12-07T06:36:08;15.90;;;15.40;;
19521;SDS011;9905;52.126;5.596;2022-12-07T06:38:35;16.15;;;15.40;;
19521;SDS011;9905;52.126;5.596;2022-12-07T06:41:02;16.98;;;16.25;;
19521;SDS011;9905;52.126;5.596;2022-12-07T06:43:29;18.03;;;17.33;;
19521;SDS011;9905;52.126;5.596;2022-12-07T06:45:56;17.42;;;16.77;;
19521;SDS011;9905;52.126;5.596;2022-12-07T06:48:22;16.27;;;15.48;;
19521;SDS011;9905;52.126;5.596;2022-12-07T06:50:49;17.52;;;16.45;;
19521;SDS011;9905;52.126;5.596;2022-12-07T06:53:17;17.63;;;16.92;;
19521;SDS011;9905;52.126;5.596;2022-12-07T06:55:44;18.03;;;17.07;;
19521;SDS011;9905;52.126;5.596;2022-12-07T06:58:11;16.83;;;15.70;;
19521;SDS011;9905;52.126;5.596;2022-12-07T07:00:37;17.75;;;16.80;;
19521;SDS011;9905;52.126;5.596;2022-12-07T07:03:04;18.65;;;17.23;;
19521;SDS011;9905;52.126;5.596;2022-12-07T07:05:31;16.07;;;15.23;;
19521;SDS011;9905;52.126;5.596;2022-12-07T07:07:57;17.80;;;17.30;;
19521;SDS011;9905;52.126;5.596;2022-12-07T07:10:25;15.75;;;14.68;;
19521;SDS011;9905;52.126;5.596;2022-12-07T07:12:52;16.25;;;15.57;;
19521;SDS011;9905;52.126;5.596;2022-12-07T07:15:19;15.50;;;14.90;;
19521;SDS011;9905;52.126;5.596;2022-12-07T07:17:46;17.43;;;16.83;;
19521;SDS011;9905;52.126;5.596;2022-12-07T07:20:13;16.85;;;16.00;;
19521;SDS011;9905;52.126;5.596;2022-12-07T07:22:39;16.20;;;15.43;;
19521;SDS011;9905;52.126;5.596;2022-12-07T07:25:06;16.40;;;15.90;;
19521;SDS011;9905;52.126;5.596;2022-12-07T07:27:35;16.60;;;15.90;;
19521;SDS011;9905;52.126;5.596;2022-12-07T07:30:02;15.75;;;15.13;;
19521;SDS011;9905;52.126;5.596;2022-12-07T07:32:29;15.37;;;14.77;;
19521;SDS011;9905;52.126;5.596;2022-12-07T07:34:56;16.03;;;15.43;;
19521;SDS011;9905;52.126;5.596;2022-12-07T07:37:23;15.50;;;14.55;;
19521;SDS011;9905;52.126;5.596;2022-12-07T07:39:49;16.17;;;15.53;;
19521;SDS011;9905;52.126;5.596;2022-12-07T07:42:16;17.50;;;16.80;;
19521;SDS011;9905;52.126;5.596;2022-12-07T07:44:44;15.45;;;14.50;;
19521;SDS011;9905;52.126;5.596;2022-12-07T07:47:11;15.07;;;14.67;;
19521;SDS011;9905;52.126;5.596;2022-12-07T07:49:38;15.60;;;14.90;;
19521;SDS011;9905;52.126;5.596;2022-12-07T07:52:05;16.57;;;15.87;;
19521;SDS011;9905;52.126;5.596;2022-12-07T07:54:32;16.17;;;15.70;;
19521;SDS011;9905;52.126;5.596;2022-12-07T07:56:58;16.23;;;15.30;;
19521;SDS011;9905;52.126;5.596;2022-12-07T07:59:25;16.80;;;15.97;;
19521;SDS011;9905;52.126;5.596;2022-12-07T08:01:53;16.30;;;15.80;;
19521;SDS011;9905;52.126;5.596;2022-12-07T08:04:20;17.87;;;17.00;;
19521;SDS011;9905;52.126;5.596;2022-12-07T08:06:47;16.97;;;16.37;;
19521;SDS011;9905;52.126;5.596;2022-12-07T08:09:13;17.88;;;17.08;;
19521;SDS011;9905;52.126;5.596;2022-12-07T08:11:40;16.40;;;15.73;;
19521;SDS011;9905;52.126;5.596;2022-12-07T08:14:07;16.43;;;15.90;;
19521;SDS011;9905;52.126;5.596;2022-12-07T08:16:34;17.87;;;16.63;;
19521;SDS011;9905;52.126;5.596;2022-12-07T08:19:02;17.38;;;16.77;;
19521;SDS011;9905;52.126;5.596;2022-12-07T08:21:30;17.57;;;16.70;;
19521;SDS011;9905;52.126;5.596;2022-12-07T08:23:57;17.83;;;16.93;;
19521;SDS011;9905;52.126;5.596;2022-12-07T08:26:24;17.13;;;16.30;;
19521;SDS011;9905;52.126;5.596;2022-12-07T08:28:52;17.73;;;17.13;;
19521;SDS011;9905;52.126;5.596;2022-12-07T08:31:19;17.90;;;17.37;;
19521;SDS011;9905;52.126;5.596;2022-12-07T08:33:46;18.10;;;17.27;;
19521;SDS011;9905;52.126;5.596;2022-12-07T08:36:17;18.77;;;18.07;;
19521;SDS011;9905;52.126;5.596;2022-12-07T08:38:43;18.30;;;17.70;;
19521;SDS011;9905;52.126;5.596;2022-12-07T08:41:10;19.90;;;18.90;;
19521;SDS011;9905;52.126;5.596;2022-12-07T08:43:37;19.60;;;18.67;;
19521;SDS011;9905;52.126;5.596;2022-12-07T08:46:06;18.13;;;17.52;;
19521;SDS011;9905;52.126;5.596;2022-12-07T08:48:36;20.23;;;19.42;;
19521;SDS011;9905;52.126;5.596;2022-12-07T08:51:07;20.33;;;19.33;;
19521;SDS011;9905;52.126;5.596;2022-12-07T08:53:35;22.97;;;21.53;;
19521;SDS011;9905;52.126;5.596;2022-12-07T08:56:04;21.13;;;20.23;;
19521;SDS011;9905;52.126;5.596;2022-12-07T08:58:33;20.10;;;19.25;;
19521;SDS011;9905;52.126;5.596;2022-12-07T09:01:02;19.70;;;18.80;;
19521;SDS011;9905;52.126;5.596;2022-12-07T09:03:29;21.08;;;19.90;;
19521;SDS011;9905;52.126;5.596;2022-12-07T09:05:56;19.85;;;18.98;;
19521;SDS011;9905;52.126;5.596;2022-12-07T09:08:25;21.08;;;20.27;;
19521;SDS011;9905;52.126;5.596;2022-12-07T09:10:56;20.73;;;20.13;;
19521;SDS011;9905;52.126;5.596;2022-12-07T09:13:24;23.20;;;21.95;;
19521;SDS011;9905;52.126;5.596;2022-12-07T09:15:50;22.40;;;21.50;;
19521;SDS011;9905;52.126;5.596;2022-12-07T09:18:17;22.88;;;21.33;;
19521;SDS011;9905;52.126;5.596;2022-12-07T09:20:44;23.40;;;22.02;;
19521;SDS011;9905;52.126;5.596;2022-12-07T09:23:11;25.27;;;23.92;;
19521;SDS011;9905;52.126;5.596;2022-12-07T09:25:37;22.20;;;21.27;;
19521;SDS011;9905;52.126;5.596;2022-12-07T09:28:05;24.20;;;22.77;;
19521;SDS011;9905;52.126;5.596;2022-12-07T09:30:32;21.75;;;20.75;;
19521;SDS011;9905;52.126;5.596;2022-12-07T09:32:59;22.27;;;21.08;;
19521;SDS011;9905;52.126;5.596;2022-12-07T09:35:26;24.52;;;23.67;;
19521;SDS011;9905;52.126;5.596;2022-12-07T09:37:53;22.42;;;21.42;;
19521;SDS011;9905;52.126;5.596;2022-12-07T09:40:20;22.63;;;20.88;;
19521;SDS011;9905;52.126;5.596;2022-12-07T09:42:49;22.27;;;21.17;;
19521;SDS011;9905;52.126;5.596;2022-12-07T09:45:21;21.17;;;20.27;;
19521;SDS011;9905;52.126;5.596;2022-12-07T09:47:50;19.98;;;19.02;;
19521;SDS011;9905;52.126;5.596;2022-12-07T09:50:18;20.35;;;19.58;;
19521;SDS011;9905;52.126;5.596;2022-12-07T09:52:47;20.08;;;18.45;;
19521;SDS011;9905;52.126;5.596;2022-12-07T09:55:19;20.58;;;19.77;;
19521;SDS011;9905;52.126;5.596;2022-12-07T09:57:49;19.05;;;18.33;;
19521;SDS011;9905;52.126;5.596;2022-12-07T10:00:18;20.48;;;19.05;;
19521;SDS011;9905;52.126;5.596;2022-12-07T10:02:50;19.85;;;18.77;;
19521;SDS011;9905;52.126;5.596;2022-12-07T10:05:20;19.23;;;18.40;;
19521;SDS011;9905;52.126;5.596;2022-12-07T10:07:50;19.58;;;18.17;;
19521;SDS011;9905;52.126;5.596;2022-12-07T10:10:17;19.08;;;18.15;;
19521;SDS011;9905;52.126;5.596;2022-12-07T10:12:53;20.13;;;18.92;;
19521;SDS011;9905;52.126;5.596;2022-12-07T10:18:21;18.95;;;17.88;;
19521;SDS011;9905;52.126;5.596;2022-12-07T10:21:03;18.67;;;17.45;;
19521;SDS011;9905;52.126;5.596;2022-12-07T10:23:39;17.70;;;16.70;;
19521;SDS011;9905;52.126;5.596;2022-12-07T10:26:20;17.42;;;16.70;;
19521;SDS011;9905;52.126;5.596;2022-12-07T10:28:52;16.42;;;15.70;;
19521;SDS011;9905;52.126;5.596;2022-12-07T10:31:20;17.65;;;16.48;;
19521;SDS011;9905;52.126;5.596;2022-12-07T10:33:51;17.33;;;16.52;;
19521;SDS011;9905;52.126;5.596;2022-12-07T10:36:20;16.70;;;16.00;;
19521;SDS011;9905;52.126;5.596;2022-12-07T10:38:49;16.67;;;16.17;;
19521;SDS011;9905;52.126;5.596;2022-12-07T10:41:18;17.25;;;16.38;;
19521;SDS011;9905;52.126;5.596;2022-12-07T10:43:46;15.40;;;14.68;;
19521;SDS011;9905;52.126;5.596;2022-12-07T10:46:20;16.08;;;15.27;;
19521;SDS011;9905;52.126;5.596;2022-12-07T10:49:13;16.33;;;15.82;;
19521;SDS011;9905;52.126;5.596;2022-12-07T10:52:00;16.73;;;15.98;;
19521;SDS011;9905;52.126;5.596;2022-12-07T10:54:38;15.68;;;15.00;;
19521;SDS011;9905;52.126;5.596;2022-12-07T10:57:19;15.77;;;15.25;;
19521;SDS011;9905;52.126;5.596;2022-12-07T10:59:59;15.05;;;14.45;;
19521;SDS011;9905;52.126;5.596;2022-12-07T11:02:34;14.45;;;13.88;;
19521;SDS011;9905;52.126;5.596;2022-12-07T11:05:13;12.45;;;12.07;;
19521;SDS011;9905;52.126;5.596;2022-12-07T11:07:47;12.00;;;11.60;;
19521;SDS011;9905;52.126;5.596;2022-12-07T11:10:21;12.63;;;12.32;;
19521;SDS011;9905;52.126;5.596;2022-12-07T11:12:56;11.85;;;11.45;;
19521;SDS011;9905;52.126;5.596;2022-12-07T11:15:32;11.25;;;10.70;;
19521;SDS011;9905;52.126;5.596;2022-12-07T11:18:10;10.75;;;10.25;;
19521;SDS011;9905;52.126;5.596;2022-12-07T11:20:48;10.38;;;9.65;;
19521;SDS011;9905;52.126;5.596;2022-12-07T11:23:22;9.70;;;9.40;;
19521;SDS011;9905;52.126;5.596;2022-12-07T11:25:57;9.98;;;9.48;;
19521;SDS011;9905;52.126;5.596;2022-12-07T11:28:37;8.90;;;8.20;;
19521;SDS011;9905;52.126;5.596;2022-12-07T11:31:16;9.52;;;9.13;;
19521;SDS011;9905;52.126;5.596;2022-12-07T11:33:49;9.18;;;8.80;;
19521;SDS011;9905;52.126;5.596;2022-12-07T11:36:30;7.75;;;7.45;;
19521;SDS011;9905;52.126;5.596;2022-12-07T11:39:00;8.15;;;7.90;;
19521;SDS011;9905;52.126;5.596;2022-12-07T11:41:31;7.88;;;7.57;;
19521;SDS011;9905;52.126;5.596;2022-12-07T11:44:02;8.38;;;8.00;;
19521;SDS011;9905;52.126;5.596;2022-12-07T11:46:36;8.38;;;8.07;;
19521;SDS011;9905;52.126;5.596;2022-12-07T11:49:12;7.63;;;7.43;;
19521;SDS011;9905;52.126;5.596;2022-12-07T11:51:46;8.30;;;8.10;;
19521;SDS011;9905;52.126;5.596;2022-12-07T11:54:17;8.63;;;8.23;;
19521;SDS011;9905;52.126;5.596;2022-12-07T11:56:48;9.20;;;8.48;;
19521;SDS011;9905;52.126;5.596;2022-12-07T11:59:17;8.57;;;8.15;;
19521;SDS011;9905;52.126;5.596;2022-12-07T12:01:52;7.40;;;7.20;;
19521;SDS011;9905;52.126;5.596;2022-12-07T12:04:26;7.60;;;7.32;;
19521;SDS011;9905;52.126;5.596;2022-12-07T12:06:59;7.38;;;6.88;;
19521;SDS011;9905;52.126;5.596;2022-12-07T12:09:27;8.32;;;7.68;;
19521;SDS011;9905;52.126;5.596;2022-12-07T12:12:07;7.82;;;7.10;;
19521;SDS011;9905;52.126;5.596;2022-12-07T12:14:57;6.85;;;6.50;;
19521;SDS011;9905;52.126;5.596;2022-12-07T12:17:36;8.07;;;6.97;;
19521;SDS011;9905;52.126;5.596;2022-12-07T12:20:27;7.80;;;7.40;;
19521;SDS011;9905;52.126;5.596;2022-12-07T12:22:59;7.80;;;7.40;;
19521;SDS011;9905;52.126;5.596;2022-12-07T12:25:36;8.40;;;7.65;;
19521;SDS011;9905;52.126;5.596;2022-12-07T12:28:15;7.18;;;6.78;;
19521;SDS011;9905;52.126;5.596;2022-12-07T12:30:56;6.72;;;6.38;;
19521;SDS011;9905;52.126;5.596;2022-12-07T12:33:31;7.13;;;6.55;;
19521;SDS011;9905;52.126;5.596;2022-12-07T12:36:19;6.45;;;6.15;;
19521;SDS011;9905;52.126;5.596;2022-12-07T12:38:50;6.53;;;6.32;;
19521;SDS011;9905;52.126;5.596;2022-12-07T12:47:53;6.18;;;5.88;;
19521;SDS011;9905;52.126;5.596;2022-12-07T12:50:23;6.43;;;6.03;;
19521;SDS011;9905;52.126;5.596;2022-12-07T12:52:55;6.00;;;5.65;;
19521;SDS011;9905;52.126;5.596;2022-12-07T12:58:38;5.72;;;5.32;;
19521;SDS011;9905;52.126;5.596;2022-12-07T13:10:20;5.13;;;4.93;;
19521;SDS011;9905;52.126;5.596;2022-12-07T13:12:56;5.30;;;4.80;;
19521;SDS011;9905;52.126;5.596;2022-12-07T13:15:33;5.07;;;4.55;;
19521;SDS011;9905;52.126;5.596;2022-12-07T13:18:03;5.00;;;4.72;;
19521;SDS011;9905;52.126;5.596;2022-12-07T13:20:49;6.10;;;5.07;;
19521;SDS011;9905;52.126;5.596;2022-12-07T13:23:24;5.47;;;5.13;;
19521;SDS011;9905;52.126;5.596;2022-12-07T13:25:55;5.07;;;4.78;;
19521;SDS011;9905;52.126;5.596;2022-12-07T13:28:32;6.03;;;5.55;;
19521;SDS011;9905;52.126;5.596;2022-12-07T13:33:59;6.50;;;6.30;;
19521;SDS011;9905;52.126;5.596;2022-12-07T13:36:27;6.75;;;6.55;;
19521;SDS011;9905;52.126;5.596;2022-12-07T13:39:09;5.90;;;5.70;;
19521;SDS011;9905;52.126;5.596;2022-12-07T13:41:42;7.15;;;6.70;;
19521;SDS011;9905;52.126;5.596;2022-12-07T13:44:10;6.18;;;5.88;;
19521;SDS011;9905;52.126;5.596;2022-12-07T13:46:44;6.82;;;6.45;;
19521;SDS011;9905;52.126;5.596;2022-12-07T13:49:17;6.50;;;6.30;;
19521;SDS011;9905;52.126;5.596;2022-12-07T13:51:46;6.53;;;6.32;;
19521;SDS011;9905;52.126;5.596;2022-12-07T13:54:13;6.90;;;6.70;;
19521;SDS011;9905;52.126;5.596;2022-12-07T13:56:41;6.97;;;6.78;;
19521;SDS011;9905;52.126;5.596;2022-12-07T13:59:10;6.85;;;6.65;;
19521;SDS011;9905;52.126;5.596;2022-12-07T14:01:40;7.30;;;7.00;;
19521;SDS011;9905;52.126;5.596;2022-12-07T14:04:32;6.93;;;6.70;;
19521;SDS011;9905;52.126;5.596;2022-12-07T14:07:01;7.78;;;7.40;;
19521;SDS011;9905;52.126;5.596;2022-12-07T14:09:53;7.18;;;6.88;;
19521;SDS011;9905;52.126;5.596;2022-12-07T14:12:24;8.50;;;7.90;;
19521;SDS011;9905;52.126;5.596;2022-12-07T14:14:52;7.93;;;7.63;;
19521;SDS011;9905;52.126;5.596;2022-12-07T14:17:20;7.53;;;7.13;;
19521;SDS011;9905;52.126;5.596;2022-12-07T14:19:51;7.75;;;7.25;;
19521;SDS011;9905;52.126;5.596;2022-12-07T14:22:24;6.60;;;6.13;;
19521;SDS011;9905;52.126;5.596;2022-12-07T14:25:14;6.63;;;6.25;;
19521;SDS011;9905;52.126;5.596;2022-12-07T14:27:47;7.05;;;6.75;;
19521;SDS011;9905;52.126;5.596;2022-12-07T14:30:17;7.15;;;6.85;;
19521;SDS011;9905;52.126;5.596;2022-12-07T14:32:45;6.90;;;6.70;;
19521;SDS011;9905;52.126;5.596;2022-12-07T14:35:20;6.63;;;6.43;;
19521;SDS011;9905;52.126;5.596;2022-12-07T14:37:47;6.68;;;6.38;;
19521;SDS011;9905;52.126;5.596;2022-12-07T14:40:17;6.80;;;6.20;;
19521;SDS011;9905;52.126;5.596;2022-12-07T14:42:45;6.50;;;6.30;;
19521;SDS011;9905;52.126;5.596;2022-12-07T14:45:15;7.72;;;7.25;;
19521;SDS011;9905;52.126;5.596;2022-12-07T14:47:44;6.30;;;6.00;;
19521;SDS011;9905;52.126;5.596;2022-12-07T14:50:12;6.47;;;6.18;;
19521;SDS011;9905;52.126;5.596;2022-12-07T14:52:40;6.53;;;6.32;;
19521;SDS011;9905;52.126;5.596;2022-12-07T14:55:12;5.65;;;5.55;;
19521;SDS011;9905;52.126;5.596;2022-12-07T14:57:42;6.60;;;6.32;;
19521;SDS011;9905;52.126;5.596;2022-12-07T15:00:09;6.60;;;6.30;;
19521;SDS011;9905;52.126;5.596;2022-12-07T15:02:40;6.22;;;5.93;;
19521;SDS011;9905;52.126;5.596;2022-12-07T15:05:07;7.05;;;6.72;;
19521;SDS011;9905;52.126;5.596;2022-12-07T15:07:34;7.60;;;7.10;;
19521;SDS011;9905;52.126;5.596;2022-12-07T15:10:03;6.40;;;6.20;;
19521;SDS011;9905;52.126;5.596;2022-12-07T15:12:30;6.43;;;6.22;;
19521;SDS011;9905;52.126;5.596;2022-12-07T15:14:57;6.78;;;6.40;;
19521;SDS011;9905;52.126;5.596;2022-12-07T15:17:23;6.75;;;6.45;;
19521;SDS011;9905;52.126;5.596;2022-12-07T15:19:50;6.47;;;6.15;;
19521;SDS011;9905;52.126;5.596;2022-12-07T15:22:17;6.72;;;6.53;;
19521;SDS011;9905;52.126;5.596;2022-12-07T15:24:44;7.20;;;6.85;;
19521;SDS011;9905;52.126;5.596;2022-12-07T15:27:12;7.78;;;7.38;;